Overview Statistics Trail Chart Weather Telemetry Raw packets
 

This is the latest recevied weather packets stored in our database for station/object wb2ifs-13. If no packets are shown the sender has not sent any weather packets the latest 10 day(s).

<< 3 4 5 6 7 8 9 >>
Time Temp. Humidity Pressure Rain* Wind** Luminosity Snow
1788493504 27.22° C 89% 1014.1 hPa 0 mm - - -
1788492603 26.67° C 89% 1014 hPa 0 mm - - -
1788491704 26.67° C 93% 1014.3 hPa 0 mm - - -
1788490806 26.67° C 93% 1014.5 hPa 0 mm - - -
1788489904 26.67° C 93% 1014.6 hPa 0 mm - - -
1788489004 26.67° C 93% 1014.9 hPa 0 mm - - -
1788488104 26.67° C 92% 1014.8 hPa 0 mm - - -
1788487206 26.67° C 92% 1014.8 hPa 0 mm - - -
1788486305 27.22° C 91% 1014.8 hPa 0 mm - - -
1788485405 27.22° C 90% 1014.6 hPa 0 mm - - -
1788484505 27.22° C 89% 1014.7 hPa 0 mm - - -
1788483605 27.22° C 89% 1015 hPa 0 mm - - -
1788482705 27.78° C 89% 1015.5 hPa 0 mm - - -
1788481804 27.78° C 88% 1015.3 hPa 0 mm - - -
1788480903 27.78° C 87% 1015.4 hPa 0 mm - - -
1788480003 27.78° C 87% 1015.2 hPa 0 mm - - -
1788479104 28.33° C 86% 1014.9 hPa 0 mm - - -
1788478203 28.89° C 83% 1014.7 hPa 0 mm - - -
1788477304 29.44° C 81% 1014.8 hPa 0 mm - - -
1788476405 30° C 78% 1014.7 hPa 0 mm - - -
1788475504 30.56° C 77% 1014.6 hPa 0 mm - - -
1788474603 31.11° C 77% 1014.5 hPa 0 mm - - -
1788473703 31.11° C 74% 1014.5 hPa 0 mm - - -
1788472806 31.67° C 74% 1014.7 hPa 0 mm - - -
1788471905 32.22° C 70% 1014.5 hPa 0 mm - - -

* Rain latest hour (hover to see other rain measurements)
** Current wind speed in m/s (hover to see current wind gust speed)